sensor_id;sensor_type;location;lat;lon;timestamp;pressure;altitude;pressure_sealevel;temperature;humidity
45541;BME280;31265;49.680;8.608;2023-07-30T00:00:52;99974.50;;;19.39;100.00
45541;BME280;31265;49.680;8.608;2023-07-30T00:03:21;99971.59;;;19.37;100.00
45541;BME280;31265;49.680;8.608;2023-07-30T00:05:53;99972.00;;;19.31;100.00
45541;BME280;31265;49.680;8.608;2023-07-30T00:08:22;99975.47;;;19.29;100.00
45541;BME280;31265;49.680;8.608;2023-07-30T00:10:51;99968.94;;;19.25;100.00
45541;BME280;31265;49.680;8.608;2023-07-30T00:13:19;99975.94;;;19.24;100.00
45541;BME280;31265;49.680;8.608;2023-07-30T00:15:48;99968.56;;;19.17;100.00
45541;BME280;31265;49.680;8.608;2023-07-30T00:18:18;99980.53;;;19.17;100.00
45541;BME280;31265;49.680;8.608;2023-07-30T00:20:47;99981.63;;;19.10;100.00
45541;BME280;31265;49.680;8.608;2023-07-30T00:23:16;99982.88;;;19.07;100.00
45541;BME280;31265;49.680;8.608;2023-07-30T00:25:44;99982.59;;;19.01;100.00
45541;BME280;31265;49.680;8.608;2023-07-30T00:28:15;99992.38;;;19.00;100.00
45541;BME280;31265;49.680;8.608;2023-07-30T00:30:43;99993.44;;;18.93;100.00
45541;BME280;31265;49.680;8.608;2023-07-30T00:33:12;99990.53;;;18.90;100.00
45541;BME280;31265;49.680;8.608;2023-07-30T00:35:47;99999.41;;;18.85;100.00
45541;BME280;31265;49.680;8.608;2023-07-30T00:38:15;100002.84;;;18.83;100.00
45541;BME280;31265;49.680;8.608;2023-07-30T00:40:45;100013.66;;;18.75;100.00
45541;BME280;31265;49.680;8.608;2023-07-30T00:43:13;100009.31;;;18.72;100.00
45541;BME280;31265;49.680;8.608;2023-07-30T00:45:44;100011.31;;;18.69;100.00
45541;BME280;31265;49.680;8.608;2023-07-30T00:48:13;100010.56;;;18.69;100.00
45541;BME280;31265;49.680;8.608;2023-07-30T00:50:41;100011.00;;;18.77;100.00
45541;BME280;31265;49.680;8.608;2023-07-30T00:53:14;100019.09;;;18.71;100.00
45541;BME280;31265;49.680;8.608;2023-07-30T00:55:43;100016.09;;;18.67;100.00
45541;BME280;31265;49.680;8.608;2023-07-30T00:58:12;100019.53;;;18.65;100.00
45541;BME280;31265;49.680;8.608;2023-07-30T01:00:41;100025.75;;;18.64;100.00
45541;BME280;31265;49.680;8.608;2023-07-30T01:03:10;100022.94;;;18.64;100.00
45541;BME280;31265;49.680;8.608;2023-07-30T01:05:38;100026.50;;;18.64;100.00
45541;BME280;31265;49.680;8.608;2023-07-30T01:08:07;100027.13;;;18.63;100.00
45541;BME280;31265;49.680;8.608;2023-07-30T01:10:38;100030.66;;;18.63;100.00
45541;BME280;31265;49.680;8.608;2023-07-30T01:13:09;100030.75;;;18.65;100.00
45541;BME280;31265;49.680;8.608;2023-07-30T01:15:38;100037.22;;;18.68;100.00
45541;BME280;31265;49.680;8.608;2023-07-30T01:18:07;100031.38;;;18.64;100.00
45541;BME280;31265;49.680;8.608;2023-07-30T01:20:35;100030.16;;;18.67;100.00
45541;BME280;31265;49.680;8.608;2023-07-30T01:23:08;100022.34;;;18.65;100.00
45541;BME280;31265;49.680;8.608;2023-07-30T01:25:37;100022.84;;;18.62;100.00
45541;BME280;31265;49.680;8.608;2023-07-30T01:28:06;100036.88;;;18.62;100.00
45541;BME280;31265;49.680;8.608;2023-07-30T01:30:38;100034.09;;;18.62;100.00
45541;BME280;31265;49.680;8.608;2023-07-30T01:33:10;100044.50;;;18.59;100.00
45541;BME280;31265;49.680;8.608;2023-07-30T01:35:41;100039.81;;;18.64;100.00
45541;BME280;31265;49.680;8.608;2023-07-30T01:38:12;100046.41;;;18.55;100.00
45541;BME280;31265;49.680;8.608;2023-07-30T01:40:42;100045.56;;;18.52;100.00
45541;BME280;31265;49.680;8.608;2023-07-30T01:43:11;100052.72;;;18.55;100.00
45541;BME280;31265;49.680;8.608;2023-07-30T01:45:40;100048.13;;;18.62;100.00
45541;BME280;31265;49.680;8.608;2023-07-30T01:48:08;100059.38;;;18.62;100.00
45541;BME280;31265;49.680;8.608;2023-07-30T01:50:36;100060.53;;;18.57;100.00
45541;BME280;31265;49.680;8.608;2023-07-30T01:53:05;100063.88;;;18.53;100.00
45541;BME280;31265;49.680;8.608;2023-07-30T01:55:35;100059.28;;;18.60;100.00
45541;BME280;31265;49.680;8.608;2023-07-30T01:58:03;100055.13;;;18.61;100.00
45541;BME280;31265;49.680;8.608;2023-07-30T02:00:31;100059.69;;;18.54;100.00
45541;BME280;31265;49.680;8.608;2023-07-30T02:03:06;100063.75;;;18.51;100.00
45541;BME280;31265;49.680;8.608;2023-07-30T02:05:34;100070.84;;;18.52;100.00
45541;BME280;31265;49.680;8.608;2023-07-30T02:08:03;100065.75;;;18.48;100.00
45541;BME280;31265;49.680;8.608;2023-07-30T02:10:36;100065.53;;;18.44;100.00
45541;BME280;31265;49.680;8.608;2023-07-30T02:13:05;100068.44;;;18.46;100.00
45541;BME280;31265;49.680;8.608;2023-07-30T02:15:34;100067.81;;;18.48;100.00
45541;BME280;31265;49.680;8.608;2023-07-30T02:18:03;100070.03;;;18.50;100.00
45541;BME280;31265;49.680;8.608;2023-07-30T02:20:32;100070.09;;;18.52;100.00
45541;BME280;31265;49.680;8.608;2023-07-30T02:23:05;100071.69;;;18.55;100.00
45541;BME280;31265;49.680;8.608;2023-07-30T02:25:39;100068.22;;;18.56;100.00
45541;BME280;31265;49.680;8.608;2023-07-30T02:28:07;100076.66;;;18.56;100.00
45541;BME280;31265;49.680;8.608;2023-07-30T02:30:41;100075.31;;;18.57;100.00
45541;BME280;31265;49.680;8.608;2023-07-30T02:33:10;100075.22;;;18.55;100.00
45541;BME280;31265;49.680;8.608;2023-07-30T02:35:40;100083.00;;;18.57;100.00
45541;BME280;31265;49.680;8.608;2023-07-30T02:38:08;100078.75;;;18.56;100.00
45541;BME280;31265;49.680;8.608;2023-07-30T02:40:38;100085.31;;;18.60;100.00
45541;BME280;31265;49.680;8.608;2023-07-30T02:43:06;100076.16;;;18.60;100.00
45541;BME280;31265;49.680;8.608;2023-07-30T02:45:35;100067.50;;;18.56;100.00
45541;BME280;31265;49.680;8.608;2023-07-30T02:48:04;100063.03;;;18.51;100.00
45541;BME280;31265;49.680;8.608;2023-07-30T02:50:36;100069.28;;;18.49;100.00
45541;BME280;31265;49.680;8.608;2023-07-30T02:53:09;100073.88;;;18.42;100.00
45541;BME280;31265;49.680;8.608;2023-07-30T02:55:50;100080.94;;;18.43;100.00
45541;BME280;31265;49.680;8.608;2023-07-30T02:58:20;100081.16;;;18.47;100.00
45541;BME280;31265;49.680;8.608;2023-07-30T03:00:51;100091.25;;;18.53;100.00
45541;BME280;31265;49.680;8.608;2023-07-30T03:03:22;100091.25;;;18.53;100.00
45541;BME280;31265;49.680;8.608;2023-07-30T03:05:53;100090.41;;;18.50;100.00
45541;BME280;31265;49.680;8.608;2023-07-30T03:08:21;100094.16;;;18.55;100.00
45541;BME280;31265;49.680;8.608;2023-07-30T03:10:51;100094.03;;;18.53;100.00
45541;BME280;31265;49.680;8.608;2023-07-30T03:13:20;100103.91;;;18.54;100.00
45541;BME280;31265;49.680;8.608;2023-07-30T03:15:49;100109.03;;;18.57;100.00
45541;BME280;31265;49.680;8.608;2023-07-30T03:18:20;100103.31;;;18.55;100.00
45541;BME280;31265;49.680;8.608;2023-07-30T03:20:53;100114.31;;;18.51;100.00
45541;BME280;31265;49.680;8.608;2023-07-30T03:23:30;100106.72;;;18.54;100.00
45541;BME280;31265;49.680;8.608;2023-07-30T03:26:02;100094.56;;;18.49;100.00
45541;BME280;31265;49.680;8.608;2023-07-30T03:28:30;100099.44;;;18.48;100.00
45541;BME280;31265;49.680;8.608;2023-07-30T03:30:59;100096.41;;;18.44;100.00
45541;BME280;31265;49.680;8.608;2023-07-30T03:33:27;100089.06;;;18.37;100.00
45541;BME280;31265;49.680;8.608;2023-07-30T03:35:56;100088.84;;;18.33;100.00
45541;BME280;31265;49.680;8.608;2023-07-30T03:38:24;100079.69;;;18.33;100.00
45541;BME280;31265;49.680;8.608;2023-07-30T03:40:53;100081.25;;;18.36;100.00
45541;BME280;31265;49.680;8.608;2023-07-30T03:43:25;100082.19;;;18.40;100.00
45541;BME280;31265;49.680;8.608;2023-07-30T03:45:53;100093.53;;;18.42;100.00
45541;BME280;31265;49.680;8.608;2023-07-30T03:48:21;100097.06;;;18.43;100.00
45541;BME280;31265;49.680;8.608;2023-07-30T03:50:52;100102.88;;;18.47;100.00
45541;BME280;31265;49.680;8.608;2023-07-30T03:53:25;100105.91;;;18.51;100.00
45541;BME280;31265;49.680;8.608;2023-07-30T03:55:54;100098.84;;;18.50;100.00
45541;BME280;31265;49.680;8.608;2023-07-30T03:58:22;100109.25;;;18.47;100.00
45541;BME280;31265;49.680;8.608;2023-07-30T04:00:52;100107.16;;;18.48;100.00
45541;BME280;31265;49.680;8.608;2023-07-30T04:03:23;100120.66;;;18.52;100.00
45541;BME280;31265;49.680;8.608;2023-07-30T04:05:51;100112.16;;;18.50;100.00
45541;BME280;31265;49.680;8.608;2023-07-30T04:08:20;100100.81;;;18.47;100.00
45541;BME280;31265;49.680;8.608;2023-07-30T04:10:52;100101.84;;;18.54;100.00
45541;BME280;31265;49.680;8.608;2023-07-30T04:13:24;100115.69;;;18.50;100.00
45541;BME280;31265;49.680;8.608;2023-07-30T04:15:59;100113.59;;;18.51;100.00
45541;BME280;31265;49.680;8.608;2023-07-30T04:18:28;100115.03;;;18.52;100.00
45541;BME280;31265;49.680;8.608;2023-07-30T04:20:56;100116.63;;;18.55;100.00
45541;BME280;31265;49.680;8.608;2023-07-30T04:23:25;100120.78;;;18.54;100.00
45541;BME280;31265;49.680;8.608;2023-07-30T04:25:54;100123.16;;;18.59;100.00
45541;BME280;31265;49.680;8.608;2023-07-30T04:28:25;100125.47;;;18.63;100.00
45541;BME280;31265;49.680;8.608;2023-07-30T04:31:03;100137.53;;;18.65;100.00
45541;BME280;31265;49.680;8.608;2023-07-30T04:33:38;100137.94;;;18.74;100.00
45541;BME280;31265;49.680;8.608;2023-07-30T04:36:07;100141.28;;;18.84;100.00
45541;BME280;31265;49.680;8.608;2023-07-30T04:38:40;100136.41;;;18.84;100.00
45541;BME280;31265;49.680;8.608;2023-07-30T04:41:09;100142.53;;;18.95;100.00
45541;BME280;31265;49.680;8.608;2023-07-30T04:43:42;100152.13;;;18.89;100.00
45541;BME280;31265;49.680;8.608;2023-07-30T04:46:16;100151.25;;;19.01;100.00
45541;BME280;31265;49.680;8.608;2023-07-30T04:48:47;100153.84;;;19.10;100.00
45541;BME280;31265;49.680;8.608;2023-07-30T04:51:19;100150.00;;;19.04;100.00
45541;BME280;31265;49.680;8.608;2023-07-30T04:53:51;100143.03;;;19.05;100.00
45541;BME280;31265;49.680;8.608;2023-07-30T04:56:27;100142.81;;;19.01;100.00
45541;BME280;31265;49.680;8.608;2023-07-30T04:59:10;100145.53;;;18.99;100.00
45541;BME280;31265;49.680;8.608;2023-07-30T05:01:41;100153.69;;;18.93;100.00
45541;BME280;31265;49.680;8.608;2023-07-30T05:04:26;100144.59;;;19.08;100.00
45541;BME280;31265;49.680;8.608;2023-07-30T05:06:57;100151.13;;;19.12;100.00
45541;BME280;31265;49.680;8.608;2023-07-30T05:09:31;100160.41;;;19.01;100.00
45541;BME280;31265;49.680;8.608;2023-07-30T05:12:00;100145.91;;;19.21;100.00
45541;BME280;31265;49.680;8.608;2023-07-30T05:14:31;100146.09;;;19.39;100.00
45541;BME280;31265;49.680;8.608;2023-07-30T05:17:03;100153.06;;;19.38;100.00
45541;BME280;31265;49.680;8.608;2023-07-30T05:19:32;100140.78;;;19.31;100.00
45541;BME280;31265;49.680;8.608;2023-07-30T05:22:03;100129.69;;;19.19;100.00
45541;BME280;31265;49.680;8.608;2023-07-30T05:24:36;100124.88;;;19.22;100.00
45541;BME280;31265;49.680;8.608;2023-07-30T05:27:05;100105.72;;;19.18;100.00
45541;BME280;31265;49.680;8.608;2023-07-30T05:29:36;100106.41;;;19.32;100.00
45541;BME280;31265;49.680;8.608;2023-07-30T05:32:07;100109.50;;;19.39;100.00
45541;BME280;31265;49.680;8.608;2023-07-30T05:34:38;100114.94;;;19.34;100.00
45541;BME280;31265;49.680;8.608;2023-07-30T05:37:07;100117.44;;;19.28;100.00
45541;BME280;31265;49.680;8.608;2023-07-30T05:39:45;100114.56;;;19.26;100.00
45541;BME280;31265;49.680;8.608;2023-07-30T05:42:13;100119.09;;;19.33;100.00
45541;BME280;31265;49.680;8.608;2023-07-30T05:44:43;100125.75;;;19.40;100.00
45541;BME280;31265;49.680;8.608;2023-07-30T05:47:12;100131.00;;;19.62;100.00
45541;BME280;31265;49.680;8.608;2023-07-30T05:49:41;100122.75;;;19.66;100.00
45541;BME280;31265;49.680;8.608;2023-07-30T05:52:09;100119.00;;;19.91;100.00
45541;BME280;31265;49.680;8.608;2023-07-30T05:54:44;100126.69;;;20.22;100.00
45541;BME280;31265;49.680;8.608;2023-07-30T05:57:12;100127.41;;;20.54;100.00
45541;BME280;31265;49.680;8.608;2023-07-30T05:59:42;100126.97;;;20.94;100.00
45541;BME280;31265;49.680;8.608;2023-07-30T06:02:12;100129.38;;;21.01;100.00
45541;BME280;31265;49.680;8.608;2023-07-30T06:04:42;100135.94;;;21.06;100.00
45541;BME280;31265;49.680;8.608;2023-07-30T06:07:11;100135.00;;;20.83;100.00
45541;BME280;31265;49.680;8.608;2023-07-30T06:09:43;100137.97;;;20.38;100.00
45541;BME280;31265;49.680;8.608;2023-07-30T06:12:12;100140.75;;;20.54;100.00
45541;BME280;31265;49.680;8.608;2023-07-30T06:14:43;100136.50;;;20.53;100.00
45541;BME280;31265;49.680;8.608;2023-07-30T06:17:14;100138.16;;;20.10;100.00
45541;BME280;31265;49.680;8.608;2023-07-30T06:19:42;100137.53;;;20.28;100.00
45541;BME280;31265;49.680;8.608;2023-07-30T06:22:11;100145.81;;;20.55;100.00
45541;BME280;31265;49.680;8.608;2023-07-30T06:24:43;100138.81;;;20.90;100.00
45541;BME280;31265;49.680;8.608;2023-07-30T06:27:12;100145.66;;;20.85;100.00
45541;BME280;31265;49.680;8.608;2023-07-30T06:29:42;100139.75;;;20.47;100.00
45541;BME280;31265;49.680;8.608;2023-07-30T06:32:12;100141.75;;;20.76;100.00
45541;BME280;31265;49.680;8.608;2023-07-30T06:34:42;100147.13;;;21.04;100.00
45541;BME280;31265;49.680;8.608;2023-07-30T06:37:13;100151.59;;;21.27;100.00
45541;BME280;31265;49.680;8.608;2023-07-30T06:39:43;100154.69;;;21.69;100.00
45541;BME280;31265;49.680;8.608;2023-07-30T06:42:11;100164.28;;;22.36;100.00
45541;BME280;31265;49.680;8.608;2023-07-30T06:44:45;100161.06;;;22.85;100.00
45541;BME280;31265;49.680;8.608;2023-07-30T06:47:18;100161.06;;;22.85;100.00
45541;BME280;31265;49.680;8.608;2023-07-30T06:49:53;100159.78;;;22.48;100.00
45541;BME280;31265;49.680;8.608;2023-07-30T06:52:22;100157.06;;;22.32;100.00
45541;BME280;31265;49.680;8.608;2023-07-30T06:54:55;100149.03;;;22.25;100.00
45541;BME280;31265;49.680;8.608;2023-07-30T06:57:23;100149.25;;;22.31;100.00
45541;BME280;31265;49.680;8.608;2023-07-30T06:59:52;100153.56;;;22.14;100.00
45541;BME280;31265;49.680;8.608;2023-07-30T07:02:20;100143.78;;;22.17;100.00
45541;BME280;31265;49.680;8.608;2023-07-30T07:04:49;100149.47;;;21.99;100.00
45541;BME280;31265;49.680;8.608;2023-07-30T07:07:21;100152.53;;;22.23;100.00
45541;BME280;31265;49.680;8.608;2023-07-30T07:09:50;100152.25;;;21.43;100.00
45541;BME280;31265;49.680;8.608;2023-07-30T07:12:20;100145.25;;;21.62;100.00
45541;BME280;31265;49.680;8.608;2023-07-30T07:14:49;100154.69;;;21.69;100.00
45541;BME280;31265;49.680;8.608;2023-07-30T07:17:21;100159.59;;;21.68;100.00
45541;BME280;31265;49.680;8.608;2023-07-30T07:19:52;100158.56;;;21.60;100.00
45541;BME280;31265;49.680;8.608;2023-07-30T07:22:23;100166.16;;;21.55;100.00
45541;BME280;31265;49.680;8.608;2023-07-30T07:24:54;100165.00;;;21.80;100.00
45541;BME280;31265;49.680;8.608;2023-07-30T07:27:22;100160.72;;;21.79;100.00
45541;BME280;31265;49.680;8.608;2023-07-30T07:29:51;100162.97;;;22.39;100.00
45541;BME280;31265;49.680;8.608;2023-07-30T07:32:21;100165.56;;;22.52;100.00
45541;BME280;31265;49.680;8.608;2023-07-30T07:34:54;100168.38;;;21.95;100.00
45541;BME280;31265;49.680;8.608;2023-07-30T07:37:25;100158.63;;;22.18;100.00
45541;BME280;31265;49.680;8.608;2023-07-30T07:39:59;100156.50;;;22.56;100.00
45541;BME280;31265;49.680;8.608;2023-07-30T07:42:27;100163.13;;;22.63;100.00
45541;BME280;31265;49.680;8.608;2023-07-30T07:44:58;100171.03;;;22.08;100.00
45541;BME280;31265;49.680;8.608;2023-07-30T07:47:28;100164.16;;;21.96;100.00
45541;BME280;31265;49.680;8.608;2023-07-30T07:49:56;100163.25;;;22.09;100.00
45541;BME280;31265;49.680;8.608;2023-07-30T07:52:28;100148.63;;;21.77;100.00
45541;BME280;31265;49.680;8.608;2023-07-30T07:54:57;100149.53;;;21.81;100.00
45541;BME280;31265;49.680;8.608;2023-07-30T07:57:25;100144.38;;;22.14;100.00
45541;BME280;31265;49.680;8.608;2023-07-30T08:00:09;100151.25;;;22.88;100.00
45541;BME280;31265;49.680;8.608;2023-07-30T08:02:41;100159.09;;;23.32;100.00
45541;BME280;31265;49.680;8.608;2023-07-30T08:05:15;100148.56;;;23.34;100.00
45541;BME280;31265;49.680;8.608;2023-07-30T08:07:49;100151.50;;;23.16;100.00
45541;BME280;31265;49.680;8.608;2023-07-30T08:10:21;100159.38;;;23.64;100.00
45541;BME280;31265;49.680;8.608;2023-07-30T08:12:52;100158.28;;;23.97;100.00
45541;BME280;31265;49.680;8.608;2023-07-30T08:15:23;100161.88;;;24.24;100.00
45541;BME280;31265;49.680;8.608;2023-07-30T08:17:55;100165.59;;;24.55;100.00
45541;BME280;31265;49.680;8.608;2023-07-30T08:20:27;100168.53;;;24.59;100.00
45541;BME280;31265;49.680;8.608;2023-07-30T08:22:59;100167.38;;;25.22;100.00
45541;BME280;31265;49.680;8.608;2023-07-30T08:25:28;100164.81;;;25.65;100.00
45541;BME280;31265;49.680;8.608;2023-07-30T08:27:58;100174.31;;;25.78;100.00
45541;BME280;31265;49.680;8.608;2023-07-30T08:30:30;100173.09;;;25.55;100.00
45541;BME280;31265;49.680;8.608;2023-07-30T08:33:01;100179.44;;;25.23;100.00
45541;BME280;31265;49.680;8.608;2023-07-30T08:35:32;100179.91;;;25.73;100.00
45541;BME280;31265;49.680;8.608;2023-07-30T08:38:04;100181.13;;;25.64;100.00
45541;BME280;31265;49.680;8.608;2023-07-30T08:40:32;100180.94;;;26.21;100.00
45541;BME280;31265;49.680;8.608;2023-07-30T08:43:02;100179.34;;;26.11;100.00
45541;BME280;31265;49.680;8.608;2023-07-30T08:45:35;100179.38;;;25.81;100.00
45541;BME280;31265;49.680;8.608;2023-07-30T08:48:04;100181.59;;;25.85;100.00
45541;BME280;31265;49.680;8.608;2023-07-30T08:50:39;100173.44;;;25.39;100.00
45541;BME280;31265;49.680;8.608;2023-07-30T08:53:11;100181.00;;;24.74;100.00
45541;BME280;31265;49.680;8.608;2023-07-30T08:55:41;100180.00;;;23.89;100.00
45541;BME280;31265;49.680;8.608;2023-07-30T08:58:10;100176.66;;;23.28;100.00
45541;BME280;31265;49.680;8.608;2023-07-30T09:00:41;100177.69;;;22.97;100.00
45541;BME280;31265;49.680;8.608;2023-07-30T09:03:18;100176.88;;;22.72;100.00
45541;BME280;31265;49.680;8.608;2023-07-30T09:05:47;100175.25;;;23.51;100.00
45541;BME280;31265;49.680;8.608;2023-07-30T09:08:25;100182.91;;;24.41;100.00
45541;BME280;31265;49.680;8.608;2023-07-30T09:10:53;100178.38;;;25.10;100.00
45541;BME280;31265;49.680;8.608;2023-07-30T09:13:22;100179.41;;;25.51;100.00
45541;BME280;31265;49.680;8.608;2023-07-30T09:16:08;100177.28;;;25.82;100.00
45541;BME280;31265;49.680;8.608;2023-07-30T09:18:40;100176.22;;;25.37;100.00
45541;BME280;31265;49.680;8.608;2023-07-30T09:21:10;100182.09;;;25.45;100.00
45541;BME280;31265;49.680;8.608;2023-07-30T09:23:42;100180.06;;;25.80;100.00
45541;BME280;31265;49.680;8.608;2023-07-30T09:26:13;100189.72;;;25.99;100.00
45541;BME280;31265;49.680;8.608;2023-07-30T09:28:41;100190.34;;;26.27;100.00
45541;BME280;31265;49.680;8.608;2023-07-30T09:31:11;100193.78;;;26.22;100.00
45541;BME280;31265;49.680;8.608;2023-07-30T09:33:49;100199.34;;;25.53;100.00
45541;BME280;31265;49.680;8.608;2023-07-30T09:36:20;100212.16;;;25.26;100.00
45541;BME280;31265;49.680;8.608;2023-07-30T09:38:50;100199.81;;;25.43;100.00
45541;BME280;31265;49.680;8.608;2023-07-30T09:41:19;100211.81;;;24.85;100.00
45541;BME280;31265;49.680;8.608;2023-07-30T09:44:00;100241.72;;;24.40;100.00
45541;BME280;31265;49.680;8.608;2023-07-30T09:46:29;100240.09;;;23.21;100.00
45541;BME280;31265;49.680;8.608;2023-07-30T09:49:04;100245.59;;;22.57;100.00
45541;BME280;31265;49.680;8.608;2023-07-30T09:51:36;100245.28;;;22.49;100.00
45541;BME280;31265;49.680;8.608;2023-07-30T09:54:08;100243.19;;;22.89;100.00
45541;BME280;31265;49.680;8.608;2023-07-30T09:56:38;100254.28;;;24.33;100.00
45541;BME280;31265;49.680;8.608;2023-07-30T09:59:09;100269.38;;;23.94;100.00
45541;BME280;31265;49.680;8.608;2023-07-30T10:01:38;100262.03;;;23.01;100.00
45541;BME280;31265;49.680;8.608;2023-07-30T10:04:10;100273.34;;;22.43;100.00
45541;BME280;31265;49.680;8.608;2023-07-30T10:06:43;100273.59;;;21.95;100.00
45541;BME280;31265;49.680;8.608;2023-07-30T10:09:17;100276.41;;;21.95;100.00
45541;BME280;31265;49.680;8.608;2023-07-30T10:11:49;100271.09;;;21.85;100.00
45541;BME280;31265;49.680;8.608;2023-07-30T10:14:24;100289.84;;;22.88;100.00
45541;BME280;31265;49.680;8.608;2023-07-30T10:16:55;100288.34;;;23.67;100.00
45541;BME280;31265;49.680;8.608;2023-07-30T10:19:25;100287.94;;;24.45;100.00
45541;BME280;31265;49.680;8.608;2023-07-30T10:21:58;100293.63;;;24.69;100.00
45541;BME280;31265;49.680;8.608;2023-07-30T10:24:30;100290.56;;;25.67;100.00
45541;BME280;31265;49.680;8.608;2023-07-30T10:27:05;100307.44;;;25.61;99.37
45541;BME280;31265;49.680;8.608;2023-07-30T10:29:35;100291.13;;;26.20;100.00
45541;BME280;31265;49.680;8.608;2023-07-30T10:32:06;100292.88;;;25.47;100.00
45541;BME280;31265;49.680;8.608;2023-07-30T10:34:44;100294.75;;;24.60;100.00
45541;BME280;31265;49.680;8.608;2023-07-30T10:37:17;100282.25;;;24.93;100.00
45541;BME280;31265;49.680;8.608;2023-07-30T10:39:49;100279.53;;;25.23;100.00
45541;BME280;31265;49.680;8.608;2023-07-30T10:42:18;100289.63;;;24.78;100.00
45541;BME280;31265;49.680;8.608;2023-07-30T10:44:46;100289.00;;;24.56;100.00
45541;BME280;31265;49.680;8.608;2023-07-30T10:47:15;100296.16;;;24.13;100.00
45541;BME280;31265;49.680;8.608;2023-07-30T10:50:02;100297.03;;;24.89;98.73
45541;BME280;31265;49.680;8.608;2023-07-30T10:52:31;100298.00;;;24.74;95.51
45541;BME280;31265;49.680;8.608;2023-07-30T10:55:01;100302.59;;;24.37;97.57
45541;BME280;31265;49.680;8.608;2023-07-30T10:57:30;100306.44;;;24.96;95.39
45541;BME280;31265;49.680;8.608;2023-07-30T11:00:00;100301.25;;;25.41;92.32
45541;BME280;31265;49.680;8.608;2023-07-30T11:02:29;100311.63;;;25.04;87.64
45541;BME280;31265;49.680;8.608;2023-07-30T11:04:58;100321.19;;;25.43;87.22
45541;BME280;31265;49.680;8.608;2023-07-30T11:07:38;100316.66;;;26.18;80.38
45541;BME280;31265;49.680;8.608;2023-07-30T11:10:10;100317.75;;;26.35;79.93
45541;BME280;31265;49.680;8.608;2023-07-30T11:12:38;100318.25;;;25.95;75.54
45541;BME280;31265;49.680;8.608;2023-07-30T11:15:07;100310.13;;;25.01;80.30
45541;BME280;31265;49.680;8.608;2023-07-30T11:17:36;100327.44;;;24.87;86.72
45541;BME280;31265;49.680;8.608;2023-07-30T11:20:05;100329.47;;;25.61;80.11
45541;BME280;31265;49.680;8.608;2023-07-30T11:22:35;100331.72;;;26.89;67.56
45541;BME280;31265;49.680;8.608;2023-07-30T11:25:16;100336.50;;;25.86;72.33
45541;BME280;31265;49.680;8.608;2023-07-30T11:27:45;100332.31;;;25.08;86.38
45541;BME280;31265;49.680;8.608;2023-07-30T11:30:14;100351.69;;;24.66;86.14
45541;BME280;31265;49.680;8.608;2023-07-30T11:32:43;100351.72;;;23.78;92.09
45541;BME280;31265;49.680;8.608;2023-07-30T11:35:12;100355.75;;;23.31;100.00
45541;BME280;31265;49.680;8.608;2023-07-30T11:37:43;100358.75;;;22.97;100.00
45541;BME280;31265;49.680;8.608;2023-07-30T11:40:14;100355.22;;;22.59;100.00
45541;BME280;31265;49.680;8.608;2023-07-30T11:42:43;100348.28;;;22.44;100.00
45541;BME280;31265;49.680;8.608;2023-07-30T11:45:18;100363.19;;;22.64;100.00
45541;BME280;31265;49.680;8.608;2023-07-30T11:47:47;100367.53;;;22.85;98.81
45541;BME280;31265;49.680;8.608;2023-07-30T11:50:16;100372.00;;;23.30;95.96
45541;BME280;31265;49.680;8.608;2023-07-30T11:52:53;100376.16;;;23.27;90.59
45541;BME280;31265;49.680;8.608;2023-07-30T11:55:36;100387.28;;;22.65;88.50
45541;BME280;31265;49.680;8.608;2023-07-30T11:58:05;100385.22;;;22.14;86.92
45541;BME280;31265;49.680;8.608;2023-07-30T12:00:34;100393.03;;;21.98;89.28
45541;BME280;31265;49.680;8.608;2023-07-30T12:03:06;100398.19;;;22.37;90.07
45541;BME280;31265;49.680;8.608;2023-07-30T12:05:35;100401.47;;;22.67;86.54
45541;BME280;31265;49.680;8.608;2023-07-30T12:08:06;100407.72;;;23.39;83.71
45541;BME280;31265;49.680;8.608;2023-07-30T12:10:44;100405.81;;;23.46;79.54
45541;BME280;31265;49.680;8.608;2023-07-30T12:13:15;100407.78;;;23.22;79.33
45541;BME280;31265;49.680;8.608;2023-07-30T12:15:46;100402.34;;;22.72;83.89
45541;BME280;31265;49.680;8.608;2023-07-30T12:18:18;100409.81;;;23.39;82.57
45541;BME280;31265;49.680;8.608;2023-07-30T12:20:47;100409.75;;;23.77;76.32
45541;BME280;31265;49.680;8.608;2023-07-30T12:23:18;100404.88;;;24.21;75.95
45541;BME280;31265;49.680;8.608;2023-07-30T12:25:47;100416.78;;;24.62;75.11
45541;BME280;31265;49.680;8.608;2023-07-30T12:28:16;100410.28;;;24.81;69.23
45541;BME280;31265;49.680;8.608;2023-07-30T12:30:44;100402.28;;;24.08;68.37
45541;BME280;31265;49.680;8.608;2023-07-30T12:33:15;100401.41;;;24.03;73.67
45541;BME280;31265;49.680;8.608;2023-07-30T12:35:47;100408.44;;;23.40;68.78
45541;BME280;31265;49.680;8.608;2023-07-30T12:38:26;100418.28;;;23.19;72.84
45541;BME280;31265;49.680;8.608;2023-07-30T12:41:00;100418.59;;;23.07;75.76
45541;BME280;31265;49.680;8.608;2023-07-30T12:43:31;100419.81;;;22.66;84.11
45541;BME280;31265;49.680;8.608;2023-07-30T12:46:01;100426.88;;;22.65;89.69
45541;BME280;31265;49.680;8.608;2023-07-30T12:48:33;100430.66;;;22.54;90.43
45541;BME280;31265;49.680;8.608;2023-07-30T12:51:04;100431.69;;;22.45;92.35
45541;BME280;31265;49.680;8.608;2023-07-30T12:53:36;100423.97;;;22.63;90.42
45541;BME280;31265;49.680;8.608;2023-07-30T12:56:10;100433.41;;;23.46;85.38
45541;BME280;31265;49.680;8.608;2023-07-30T12:58:39;100422.88;;;23.48;82.02
45541;BME280;31265;49.680;8.608;2023-07-30T13:01:10;100438.00;;;23.35;82.05